Mario Vidal

Chief Scout - Alvarado
27 Feb 2028
Sunday
Process

Personality

Adaptability (20) Ambition (6) Controversy (19) Loyalty (14) Pressure (11) Professionalism (7) Sportsmanship (12) Temperament (9)

Profile

Coaching Style Democratic
License Continental Pro
Determination 6
Man Management 3
Motivating 5
Discipline 2
Job Satisfaction
100%
Fatigue
0%
Role Chief Scout
Wage 15.3K p/w
Contract 14.03.2029

Performance

Behaviour Good
Training Effectiveness
13%
Player Development
5%
Injury Prevention
20%
Tactical Implementation
30%

Recent Events

Attended a recruitment meeting 14d ago
Attended a recruitment meeting 21d ago
Attended a recruitment meeting 28d ago
Attending professional development 35d ago
Attended a recruitment meeting 35d ago
Attending professional development 35d ago
Attending professional development 35d ago
Attending professional development 35d ago

Currently Monitoring

211
Player Club Status Ability Confidence Watched Last Observed Latest Vote
Gonzalo Flores Almirante Brown Active 96 / 99 40% 2 29.11.2026 -
Brayan Palmezano Deportivo Tachira Active 107 / 109 40% 1 29.11.2026 -
Agustín Olavarría Colon Active 92 / 94 40% 2 28.11.2026 -
Tomás Castro Ponce Atlanta Active 120 / 127 40% 1 28.11.2026 -
Gustavo Dionisi Guarani Active 92 / 84 40% 1 28.11.2026 -
Santiago Apa All Boys Active 124 / 102 40% 1 27.11.2026 -
Tyrese Spicer Orlando City Active 122 / 122 40% 2 26.11.2026 -
Nicolás Leites Artigas Active 84 / 94 40% 1 26.11.2026 -
Juan Quintana Montevideo City Torque Active 114 / 95 40% 1 25.11.2026 -
Paolo Medina Austin FC Active 91 / 125 40% 1 25.11.2026 -
Francisco Salerno Defensores Unidos Active 103 / 116 40% 2 24.11.2026 -
Facundo Lencioni Gimnasia y Esgrima Active 107 / 117 40% 1 24.11.2026 -
Massimo Sandi Sport Huancayo Active 93 / 88 40% 1 24.11.2026 -
Enzo Larrosa Independiente Medellin Active 112 / 115 40% 1 24.11.2026 -
Joel Orlando Almagro Active 103 / 122 40% 1 23.11.2026 -
Blas Armoa Gimnasia y Esgrima Active 127 / 124 40% 1 23.11.2026 -
Facundo Butti Cerro Active 90 / 104 40% 1 22.11.2026 -
Sebastián da Silva Racing Active 98 / 95 40% 2 21.11.2026 -
Germán Peralta La Luz Active 93 / 114 40% 1 21.11.2026 -
Richard Torales Guarani Active 117 / 112 40% 1 21.11.2026 -
Christian Castillo Tijuana Active 93 / 113 40% 1 20.11.2026 -
Nahuel Soria Oriental Active 89 / 101 40% 3 18.11.2026 -
Kleyder Barreto Zamora Active 101 / 96 40% 2 17.11.2026 -
Jairo Amaro Cerro Active 95 / 101 40% 1 17.11.2026 -
Fernando Bersano Madryn Active 131 / 100 40% 1 17.11.2026 -
Luis Iberico Sporting Cristal Active 103 / 126 40% 2 16.11.2026 -
Facundo Vila Estudiantes Active 93 / 86 40% 1 16.11.2026 -
Nicolás Rossi Juventud Active 108 / 110 40% 2 15.11.2026 -
Santiago Herrera Estudiantes de Caracas Active 101 / 84 40% 1 15.11.2026 -
Manuel Duarte Barracas Central Active 122 / 132 40% 1 14.11.2026 -
Juan Velázquez Belgrano Active 124 / 141 40% 1 14.11.2026 -
Facundo Di Biasi Gimnasia La Plata Active 111 / 126 40% 1 13.11.2026 -
Lucas González Nacional Active 110 / 99 40% 1 12.11.2026 -
Matías Vargas Gimnasia y Esgrima Active 138 / 126 40% 1 12.11.2026 -
Agustín Bianciotti Metropolitanos Active 110 / 111 40% 1 11.11.2026 -
Néstor Giménez Libertad Active 111 / 100 40% 1 11.11.2026 -
Ezequiel Neira Carabobo Active 121 / 105 40% 1 11.11.2026 -
Santiago Ramírez Deportivo Maldonado Active 103 / 114 40% 4 10.11.2026 -
Tomás Durso Atlético Tucumán Active 121 / 114 40% 2 10.11.2026 -
Lucas Pazos Artigas Active 92 / 78 40% 1 10.11.2026 -
Franco González Penarol Active 103 / 101 40% 1 10.11.2026 -
Tomás Zamora Mineros de Guayana Active 96 / 88 40% 1 10.11.2026 -
Thomas Ortega Quilmes Active 100 / 96 40% 1 09.11.2026 -
Ignacio Yepez Cerrito Active 106 / 97 40% 2 08.11.2026 -
Cristian Lima Uruguay Montevideo Active 103 / 108 40% 4 07.11.2026 -
Nicolás Molina Temperley Active 121 / 109 40% 1 07.11.2026 -
Francisco Casanova Cerrito Active 112 / 106 40% 1 06.11.2026 -
Agustín Navarro Atenas Active 106 / 107 40% 1 05.11.2026 -
Kevin Lezcano Guarani Active 90 / 72 40% 1 05.11.2026 -
Gaizka Gómez Wanderers Active 78 / 88 40% 1 05.11.2026 -
Martín Vallejo Oriental Active 79 / 91 40% 2 04.11.2026 -
Favio Cabral Mitre Active 119 / 131 40% 3 04.11.2026 -
Joaquín Bigo Tristán Suárez Active 121 / 102 40% 1 04.11.2026 -
Ramiro Hernandes Belgrano Active 108 / 140 40% 1 04.11.2026 -
Misael Tarón Ferro Carril Oeste Active 102 / 101 40% 1 02.11.2026 -
Bruno Palazzo Nueva Chicago Active 125 / 106 40% 1 02.11.2026 -
Brian Nievas Chaco For Ever Active 97 / 115 40% 2 01.11.2026 -
Facundo Silvera Montevideo City Torque Active 114 / 120 40% 1 01.11.2026 -
Axel Herrera Santiago Wanderers Active 100 / 85 40% 1 31.10.2026 -
Juan Manuel Requena Universitario Active 108 / 123 40% 1 31.10.2026 -
Franco Suárez Racing Active 100 / 100 40% 1 31.10.2026 -
Brian González Atenas Active 108 / 92 40% 2 30.10.2026 -
Martín Araya Palestino Active 80 / 101 40% 1 29.10.2026 -
Nicolás Forastiero Deportivo Maldonado Active 92 / 91 40% 1 29.10.2026 -
Agustín Solari 12 de Octubre Active 86 / 84 40% 1 29.10.2026 -
Esteban Moreira O'Higgins Active 100 / 91 40% 1 28.10.2026 -
Fernando Miranda Colegiales Active 108 / 119 40% 1 28.10.2026 -
Juan Ignacio Méndez Instituto Active 125 / 125 40% 1 28.10.2026 -
Enzo Silcan Almagro Active 98 / 97 40% 1 27.10.2026 -
Rodrigo Muníz Uruguay Montevideo Active 106 / 107 40% 2 26.10.2026 -
José Barreto Quilmes Active 124 / 119 40% 1 26.10.2026 -
Alejo Montero Newell's Old Boys Active 133 / 131 40% 1 26.10.2026 -
Leandro Umpiérrez Penarol Active 109 / 113 40% 1 25.10.2026 -
Ignacio Vallejos Colegiales Active 104 / 119 40% 1 25.10.2026 -
Martín Pino Godoy Cruz Active 104 / 106 40% 1 25.10.2026 -
Alejandro Samudio Nacional Active 96 / 108 40% 2 24.10.2026 -
Juan Moreno La Luz Active 114 / 125 40% 2 22.10.2026 -
Nahuel Sena Cerro Active 98 / 114 40% 1 20.10.2026 -
Francisco Galván Deportivo Municipal Active 119 / 100 40% 3 19.10.2026 -
Hugo Ancajima Universitario Active 108 / 105 40% 2 18.10.2026 -
Fernando Savarino Llaneros Active 104 / 100 40% 1 18.10.2026 -
Ignacio Colombo Los Angeles Football Club Active 73 / 72 40% 1 18.10.2026 -
Omar Robles Real Cartagena Active 60 / 66 40% 1 17.10.2026 -
Renato Alexandrino Oriental Active 83 / 100 40% 1 15.10.2026 -
Diego Magallanes Defensores Active 108 / 92 40% 1 15.10.2026 -
Nicolás Brun Montevideo City Torque Active 99 / 99 40% 2 14.10.2026 -
Gerardo Valenzuela FC Cincinnati Active 95 / 107 40% 1 14.10.2026 -
Kevin Alaniz Rampla Juniors Active 102 / 85 40% 1 13.10.2026 -
Agustín Benítez Defensores Active 110 / 117 40% 1 13.10.2026 -
Matías Mir Liverpool Montevideo Active 114 / 117 40% 1 13.10.2026 -
Kevin Lewis Liverpool Montevideo Active 93 / 93 40% 2 12.10.2026 -
Juan Pablo Noce All Boys Active 119 / 113 40% 1 12.10.2026 -
Nicolás Bolcato Independiente Rivadavia Active 109 / 99 40% 1 12.10.2026 -
Ronny Maza Aragua Active 93 / 90 40% 1 12.10.2026 -
Jerónimo Russo Newell's Old Boys Active 111 / 98 40% 1 12.10.2026 -
José Cabrera Union Magdalena Active 95 / 90 40% 1 12.10.2026 -
Lautaro Gordillo Colegiales Active 125 / 108 40% 2 10.10.2026 -
Nicolás Heiz Maipú Active 117 / 106 40% 1 09.10.2026 -
José Rondón Zulia Active 87 / 105 40% 1 09.10.2026 -
Luciano Jachfe Nueva Chicago Active 106 / 99 40% 1 09.10.2026 -
Laureano Martínez Talleres Active 107 / 124 40% 1 09.10.2026 -
Álex Perdomo Defensor Sporting Active 105 / 114 40% 2 08.10.2026 -
Maicol Ferreira Danubio Active 118 / 109 40% 1 08.10.2026 -
Gaspar Duarte Rosario Central Active 109 / 121 40% 1 07.10.2026 -
Jimmy Evans Universidad Catolica Active 108 / 99 40% 2 06.10.2026 -
Luifer Hernández Puebla Active 99 / 125 40% 1 06.10.2026 -
Francisco Sagardia Rentistas Active 78 / 77 40% 1 05.10.2026 -
Franco Malagueño Colegiales Active 115 / 109 40% 1 05.10.2026 -
Julián Vila Arsenal Active 118 / 108 40% 1 05.10.2026 -
Franco Bustamante Almagro Active 115 / 98 40% 1 05.10.2026 -
Maximiliano Rueda Patronato Active 101 / 121 40% 1 05.10.2026 -
Martin Carreño San Luis Active 85 / 87 40% 2 03.10.2026 -
Nicolás Fernández Maipú Active 119 / 93 40% 1 03.10.2026 -
Jesús Vega Queretaro Active 112 / 119 40% 1 01.10.2026 -
Sebastián Cocimano Nueva Chicago Active 103 / 119 40% 1 01.10.2026 -
Lautaro Maldonado Instituto Active 117 / 126 40% 1 01.10.2026 -
Luis Barbat Cerrito Active 80 / 78 40% 1 01.10.2026 -
Augusto Berrondo Tristán Suárez Active 113 / 108 40% 2 30.09.2026 -
José Rivera Universitario Active 125 / 125 40% 1 30.09.2026 -
Alejandro Molina Tristán Suárez Active 112 / 107 40% 1 29.09.2026 -
Diego Corral Universidad Catolica Active 79 / 102 40% 1 29.09.2026 -
Matías Núñez Atenas Active 97 / 112 40% 3 27.09.2026 -
Matías Viguet Maipú Active 102 / 121 40% 1 27.09.2026 -
Santiago Sala Güemes Active 113 / 116 40% 1 26.09.2026 -
Nicolás Fernández Progreso Active 96 / 117 40% 1 26.09.2026 -
Yeferson Cordova Llaneros Active 95 / 111 40% 1 24.09.2026 -
Nelson Cabanillas Melgar Active 98 / 104 40% 2 23.09.2026 -
Junior Paredes Trujillanos Active 103 / 86 40% 1 23.09.2026 -
Franco Martínez Artigas Active 112 / 100 40% 3 21.09.2026 -
Nicolás Burgio Montevideo City Torque Active 86 / 75 40% 1 21.09.2026 -
Gianfranco Chávez Alianza Lima Active 108 / 124 40% 1 21.09.2026 -
Cristóbal Guerra San Marcos de Arica Active 102 / 103 40% 1 20.09.2026 -
Gali Balanta Deportes Tolima Active 84 / 104 40% 2 19.09.2026 -
Agustín Gallo Tristán Suárez Active 124 / 109 40% 1 19.09.2026 -
Fabrizio Correa Juventud Active 104 / 118 40% 2 18.09.2026 -
Christian Ebere Cruz Azul Active 140 / 118 40% 2 18.09.2026 -
Owen Falconis Cerrito Active 93 / 109 40% 1 18.09.2026 -
Ignacio Rodríguez Racing Club Active 117 / 137 40% 1 17.09.2026 -
Andrés Montaño Cruz Azul Active 124 / 130 40% 1 16.09.2026 -
Mauro Rodas Sportivo Trinidense Active 95 / 87 40% 1 15.09.2026 -
Franco Pérez Boston River Active 93 / 102 40% 1 14.09.2026 -
Pablo López Tacuarembo Active 111 / 114 40% 1 14.09.2026 -
Sebastián Guerra Barranquilla Active 90 / 97 40% 1 14.09.2026 -
Federico Losas Chacarita Juniors Active 114 / 97 40% 1 13.09.2026 -
Agustín Requena Progreso Active 98 / 98 40% 1 13.09.2026 -
Marcelo Fernández Libertad Active 111 / 116 40% 1 13.09.2026 -
José Rivas Gamboa Trujillanos Active 96 / 103 40% 1 13.09.2026 -
Leomar Mosquera Trujillanos Active 99 / 111 40% 1 11.09.2026 -
Cristian Tovar America de Cali Active 122 / 119 40% 1 10.09.2026 -
Antonio Martínez Cerro Porteno Active 74 / 73 40% 1 09.09.2026 -
Mauricio Isais Pachuca Active 98 / 141 40% 2 08.09.2026 -
Camilo Machado Madryn Active 121 / 112 40% 1 08.09.2026 -
Pedro Pedraza Pachuca Active 128 / 109 40% 1 08.09.2026 -
Pablo Cardona Cortulua Active 118 / 118 40% 1 07.09.2026 -
Martín Sarrafiore O'Higgins Active 113 / 100 40% 1 07.09.2026 -
Elías Torres Racing Club Active 115 / 117 40% 1 07.09.2026 -
Gastón Verón Argentinos Juniors Active 112 / 129 40% 1 06.09.2026 -
Antonio González Estudiantes de Caracas Active 100 / 89 40% 1 06.09.2026 -
Sebastián Guzmán Deportes Tolima Active 115 / 130 40% 1 05.09.2026 -
Cristhofer Mesías Universidad de Concepcion Active 102 / 102 40% 1 05.09.2026 -
Renato Solís Sporting Cristal Active 121 / 105 40% 2 04.09.2026 -
Jeremi Machado Mineros de Guayana Active 78 / 81 40% 1 03.09.2026 -
Samuel Velásquez Atletico Nacional Active 112 / 120 40% 1 03.09.2026 -
Dylan Lozano Aguilas Doradas Active 109 / 101 40% 1 01.09.2026 -
Anthony Stella Artigas Active 91 / 103 40% 1 30.08.2026 -
Marco Collao Audax Italiano Active 116 / 94 40% 1 30.08.2026 -
Éwil Murillo Santa Fe Active 112 / 113 40% 1 30.08.2026 -
Agustín Pereira Albion Active 112 / 108 40% 1 29.08.2026 -
Federico Dafonte Boston River Active 88 / 112 40% 1 29.08.2026 -
Pável Pérez Toluca Active 123 / 146 40% 1 29.08.2026 -
Julian Herrera Cortulua Active 124 / 134 40% 2 27.08.2026 -
Santiago Naveda Club America Active 96 / 133 40% 2 27.08.2026 -
Facundo Barreto Colon Active 69 / 77 40% 1 27.08.2026 -
Didier Bueno Jaguares Active 102 / 86 40% 1 27.08.2026 -
Juan Romero Olimpia Active 105 / 98 40% 1 24.08.2026 -
Víctor Rivarola Guarani Active 85 / 105 40% 1 23.08.2026 -
Nahuel Marzochi Colon Active 94 / 94 40% 1 22.08.2026 -
Felipe Espinoza Iquique Active 105 / 108 40% 1 22.08.2026 -
Iván Franco Libertad Active 115 / 127 40% 1 21.08.2026 -
Luis Palacios Tigres Active 112 / 105 40% 1 21.08.2026 -
Alejandro Rincon Llaneros Active 107 / 106 40% 1 21.08.2026 -
Moisés Gallo Aragua Active 95 / 85 40% 1 19.08.2026 -
Aldo Pérez Guarani Active 99 / 93 40% 1 18.08.2026 -
Santiago Cubides Jaguares Active 97 / 92 40% 1 18.08.2026 -
Derrick Etienne Jr. Toronto FC Active 132 / 138 40% 1 18.08.2026 -
Jordan Carrillo Guadalajara Active 133 / 105 40% 1 18.08.2026 -
Leonardo Olavarría Uruguay Montevideo Active 90 / 113 40% 1 15.08.2026 -
Alessandro Burlamaqui Alianza Lima Active 96 / 127 40% 1 12.08.2026 -
Brian Mancini Rampla Juniors Active 87 / 66 40% 1 12.08.2026 -
Cristian Núñez Huracán Active 125 / 117 40% 1 10.08.2026 -
José Luis Caicedo Barranquilla Active 118 / 129 40% 1 10.08.2026 -
Johan Hinestroza Jaguares Active 88 / 113 40% 1 10.08.2026 -
Jonathan Amarilla River Plate Active 76 / 98 40% 1 07.08.2026 -
Rodrigo Viera Cerrito Active 105 / 104 40% 1 07.08.2026 -
Mathías Bernatene Liverpool Montevideo Active 103 / 83 40% 1 06.08.2026 -
Francisco Morel Nacional Active 75 / 82 40% 1 05.08.2026 -
Christian Franco Oriental Active 87 / 91 40% 1 05.08.2026 -
Ismael Tejería Rampla Juniors Active 90 / 78 40% 1 05.08.2026 -
Álvaro San Emeterio Tacuarembo Active 103 / 88 40% 1 05.08.2026 -
Ronald Duarte 12 de Octubre Active 81 / 93 40% 1 04.08.2026 -
Andrés Buelvas Bogota Active 78 / 82 40% 1 04.08.2026 -
Léider Riascos Llaneros Active 129 / 129 40% 1 04.08.2026 -
Esteban Beltrán Jaguares Active 117 / 115 40% 1 04.08.2026 -
Paolo Reyna Universitario Active 115 / 124 40% 1 03.08.2026 -
Carlos Romaña Atletico Bucaramanga Active 128 / 107 40% 1 03.08.2026 -
Martín Ballesteros Audax Italiano Active 91 / 69 40% 1 03.08.2026 -
Ángel González Libertad Active 89 / 111 40% 1 03.08.2026 -
Jeriel De Santis Caracas Active 96 / 97 40% 1 02.08.2026 -
Briam Acosta Albion Active 106 / 104 40% 1 01.08.2026 -
Milton Giménez Boca Juniors Active 132 / 144 40% 1 01.08.2026 -
Andrés Reyes Atletico Nacional Active 110 / 135 40% 1 01.08.2026 -